Aviation Digital Data Service (ADDS)

Output produced by METARs form (0204 UTC 24 October 2019)
found at http://www.aviationweather.gov/metar/data/
 
Forecast for: LGKR (IOANNIS KAPODIST, GR)
Text: TAF LGKR 232300Z 2400/2424 VRB05KT 9999 FEW020
Forecast period: 0000 UTC 24 October 2019 to 0000 UTC 25 October 2019
Forecast type: FROM: standard forecast or significant change
Winds: variable direction winds at 6 MPH (5 knots; 2.6 m/s)
Visibility: 6 or more miles 10+ km)
Ceiling: at least 12,000 feet AGL
Clouds: few clouds at 2000 feet AGL
Weather: no significant weather forecast for this period